createdAt,value
2018-07-15T00:01:01.355Z,101150.84
2018-07-15T00:03:30.917Z,101152.63
2018-07-15T00:05:59.842Z,101151.48
2018-07-15T00:08:28.777Z,101150.45
2018-07-15T00:10:59.268Z,101154.01
2018-07-15T00:13:28.013Z,101154.65
2018-07-15T00:15:57.095Z,101157.23
2018-07-15T00:18:25.867Z,101158.58
2018-07-15T00:20:54.344Z,101154.42
2018-07-15T00:23:23.653Z,101158.23
2018-07-15T00:25:54.050Z,101150.78
2018-07-15T00:28:24.902Z,101157.50
2018-07-15T00:30:54.606Z,101151.00
2018-07-15T00:33:24.140Z,101151.67
2018-07-15T00:35:52.935Z,101149.48
2018-07-15T00:38:21.792Z,101152.30
2018-07-15T00:40:50.629Z,101156.84
2018-07-15T00:43:19.565Z,101155.91
2018-07-15T00:45:48.449Z,101150.88
2018-07-15T00:48:19.958Z,101158.19
2018-07-15T00:50:48.925Z,101157.23
2018-07-15T00:53:19.716Z,101153.13
2018-07-15T00:55:48.447Z,101152.28
2018-07-15T00:58:17.131Z,101153.52
2018-07-15T01:00:50.966Z,101150.32
2018-07-15T01:03:19.488Z,101150.84
2018-07-15T01:05:48.121Z,101151.04
2018-07-15T01:08:16.766Z,101150.73
2018-07-15T01:10:45.382Z,101155.19
2018-07-15T01:13:14.187Z,101143.22
2018-07-15T01:15:42.830Z,101146.72
2018-07-15T01:18:11.667Z,101146.50
2018-07-15T01:20:40.340Z,101146.52
2018-07-15T01:23:09.019Z,101142.91
2018-07-15T01:25:37.674Z,101145.47
2018-07-15T01:28:06.352Z,101144.02
2018-07-15T01:30:35.161Z,101143.83
2018-07-15T01:33:03.699Z,101142.59
2018-07-15T01:35:32.377Z,101137.82
2018-07-15T01:38:01.040Z,101133.91
2018-07-15T01:40:29.703Z,101137.53
2018-07-15T01:42:58.570Z,101140.61
2018-07-15T01:45:27.236Z,101137.12
2018-07-15T01:47:55.934Z,101134.44
2018-07-15T01:50:24.536Z,101136.91
2018-07-15T01:52:53.173Z,101133.38
2018-07-15T01:55:21.931Z,101131.02
2018-07-15T01:57:51.513Z,101131.02
2018-07-15T02:00:20.185Z,101130.69
2018-07-15T02:02:48.839Z,101131.73
2018-07-15T02:05:17.559Z,101134.55
2018-07-15T02:07:46.267Z,101131.32
2018-07-15T02:10:14.748Z,101133.50
2018-07-15T02:12:43.393Z,101135.35
2018-07-15T02:15:11.991Z,101130.91
2018-07-15T02:17:40.694Z,101136.17
2018-07-15T02:20:09.368Z,101134.91
2018-07-15T02:22:38.071Z,101136.44
2018-07-15T02:25:06.891Z,101130.85
2018-07-15T02:27:35.427Z,101139.11
2018-07-15T02:30:04.037Z,101138.89
2018-07-15T02:32:32.689Z,101132.59
2018-07-15T02:35:01.322Z,101132.59
2018-07-15T02:37:29.979Z,101131.36
2018-07-15T02:39:58.719Z,101128.50
2018-07-15T02:42:27.428Z,101126.83
2018-07-15T02:44:56.092Z,101127.55
2018-07-15T02:47:24.803Z,101127.84
2018-07-15T02:49:53.496Z,101129.72
2018-07-15T02:52:22.151Z,101128.39
2018-07-15T02:54:52.108Z,101129.83
2018-07-15T02:57:20.688Z,101126.00
2018-07-15T02:59:49.335Z,101126.83
2018-07-15T03:02:18.018Z,101128.50
2018-07-15T03:04:46.667Z,101120.85
2018-07-15T03:07:15.293Z,101118.71
2018-07-15T03:09:43.883Z,101108.48
2018-07-15T03:12:12.562Z,101110.34
2018-07-15T03:14:41.190Z,101110.31
2018-07-15T03:17:09.798Z,101105.16
2018-07-15T03:19:38.371Z,101106.83
2018-07-15T03:22:07.051Z,101111.76
2018-07-15T03:24:35.756Z,101107.05
2018-07-15T03:27:04.415Z,101104.66
2018-07-15T03:29:33.055Z,101099.62
2018-07-15T03:32:01.843Z,101105.16
2018-07-15T03:34:30.352Z,101099.69
2018-07-15T03:36:58.975Z,101103.72
2018-07-15T03:39:27.643Z,101102.70
2018-07-15T03:41:56.237Z,101102.48
2018-07-15T03:44:24.926Z,101103.72
2018-07-15T03:46:53.744Z,101108.67
2018-07-15T03:49:22.499Z,101099.80
2018-07-15T03:51:51.109Z,101102.16
2018-07-15T03:54:19.711Z,101101.87
2018-07-15T03:56:48.361Z,101103.39
2018-07-15T03:59:16.952Z,101105.38
2018-07-15T04:01:45.547Z,101103.31
2018-07-15T04:04:14.167Z,101096.93
2018-07-15T04:06:43.230Z,101102.91
2018-07-15T04:09:11.878Z,101103.56
2018-07-15T04:11:40.470Z,101107.36
2018-07-15T04:14:12.339Z,101106.02
2018-07-15T04:16:41.019Z,101105.63
2018-07-15T04:19:09.527Z,101107.17
2018-07-15T04:21:38.162Z,101105.53
2018-07-15T04:24:06.915Z,101101.50
2018-07-15T04:26:35.604Z,101100.26
2018-07-15T04:29:04.199Z,101100.16
2018-07-15T04:31:32.963Z,101098.29
2018-07-15T04:34:01.672Z,101094.28
2018-07-15T04:36:30.315Z,101103.37
2018-07-15T04:38:59.340Z,101100.98
2018-07-15T04:41:27.976Z,101102.40
2018-07-15T04:43:57.126Z,101104.58
2018-07-15T04:46:25.702Z,101101.67
2018-07-15T04:48:54.213Z,101105.16
2018-07-15T04:51:22.811Z,101107.02
2018-07-15T04:53:51.512Z,101101.52
2018-07-15T04:56:20.323Z,101100.69
2018-07-15T04:58:49.473Z,101100.05
2018-07-15T05:01:18.123Z,101097.87
2018-07-15T05:03:46.848Z,101099.91
2018-07-15T05:06:16.091Z,101096.38
2018-07-15T05:08:44.888Z,101094.58
2018-07-15T05:11:13.619Z,101097.53
2018-07-15T05:13:42.287Z,101096.55
2018-07-15T05:16:10.949Z,101101.05
2018-07-15T05:18:40.666Z,101102.58
2018-07-15T05:21:09.332Z,101106.34
2018-07-15T05:23:40.043Z,101104.45
2018-07-15T05:26:08.695Z,101107.41
2018-07-15T05:28:37.409Z,101106.48
2018-07-15T05:31:06.091Z,101115.80
2018-07-15T05:33:34.881Z,101112.89
2018-07-15T05:36:03.536Z,101112.25
2018-07-15T05:38:32.249Z,101113.01
2018-07-15T05:41:00.809Z,101115.19
2018-07-15T05:43:29.361Z,101112.00
2018-07-15T05:45:58.120Z,101112.31
2018-07-15T05:48:26.733Z,101116.66
2018-07-15T05:50:55.597Z,101118.00
2018-07-15T05:53:24.405Z,101116.05
2018-07-15T05:55:52.924Z,101114.02
2018-07-15T05:58:21.655Z,101112.26
2018-07-15T06:00:50.272Z,101118.89
2018-07-15T06:03:19.027Z,101113.12
2018-07-15T06:05:47.646Z,101112.93
2018-07-15T06:08:16.271Z,101115.95
2018-07-15T06:10:45.017Z,101118.89
2018-07-15T06:13:13.741Z,101120.89
2018-07-15T06:15:42.395Z,101119.53
2018-07-15T06:18:11.454Z,101117.19
2018-07-15T06:20:40.235Z,101116.75
2018-07-15T06:23:09.548Z,101113.91
2018-07-15T06:25:38.280Z,101114.52
2018-07-15T06:28:06.876Z,101114.69
2018-07-15T06:30:35.568Z,101113.43
2018-07-15T06:33:04.709Z,101114.63
2018-07-15T06:35:33.457Z,101108.40
2018-07-15T06:38:02.176Z,101108.39
2018-07-15T06:40:30.863Z,101113.50
2018-07-15T06:42:59.680Z,101111.55
2018-07-15T06:45:28.313Z,101107.75
2018-07-15T06:47:57.083Z,101103.12
2018-07-15T06:50:25.735Z,101106.55
2018-07-15T06:52:54.419Z,101106.19
2018-07-15T06:55:23.194Z,101103.66
2018-07-15T06:57:51.814Z,101108.67
2018-07-15T07:00:21.347Z,101103.69
2018-07-15T07:02:49.875Z,101103.50
2018-07-15T07:05:18.555Z,101099.77
2018-07-15T07:07:47.213Z,101100.40
2018-07-15T07:10:15.835Z,101097.45
2018-07-15T07:12:45.706Z,101101.98
2018-07-15T07:15:14.421Z,101110.59
2018-07-15T07:17:43.079Z,101105.75
2018-07-15T07:20:11.805Z,101110.35
2018-07-15T07:22:40.448Z,101105.98
2018-07-15T07:25:09.239Z,101109.91
2018-07-15T07:27:37.886Z,101112.83
2018-07-15T07:30:06.521Z,101110.55
2018-07-15T07:32:35.183Z,101110.42
2018-07-15T07:35:03.755Z,101106.77
2018-07-15T07:37:32.433Z,101109.81
2018-07-15T07:40:01.048Z,101111.48
2018-07-15T07:42:29.701Z,101109.34
2018-07-15T07:44:58.484Z,101102.33
2018-07-15T07:47:27.014Z,101108.67
2018-07-15T07:49:55.768Z,101096.75
2018-07-15T07:52:24.465Z,101107.42
2018-07-15T07:54:53.126Z,101100.12
2018-07-15T07:57:21.862Z,101103.21
2018-07-15T07:59:50.573Z,101103.80
2018-07-15T08:02:19.300Z,101101.17
2018-07-15T08:04:47.902Z,101100.42
2018-07-15T08:07:16.677Z,101102.34
2018-07-15T08:09:45.319Z,101104.55
2018-07-15T08:12:13.902Z,101099.38
2018-07-15T08:14:43.479Z,101100.48
2018-07-15T08:17:12.160Z,101105.42
2018-07-15T08:19:40.894Z,101101.38
2018-07-15T08:22:09.598Z,101096.83
2018-07-15T08:24:38.361Z,101095.77
2018-07-15T08:27:07.055Z,101096.90
2018-07-15T08:29:36.376Z,101098.81
2018-07-15T08:32:05.073Z,101098.83
2018-07-15T08:34:33.760Z,101104.05
2018-07-15T08:37:02.458Z,101099.16
2018-07-15T08:39:31.121Z,101092.36
2018-07-15T08:41:59.681Z,101098.36
2018-07-15T08:44:28.379Z,101092.62
2018-07-15T08:46:57.153Z,101091.84
2018-07-15T08:49:25.805Z,101096.77
2018-07-15T08:51:54.569Z,101098.95
2018-07-15T08:54:23.182Z,101097.87
2018-07-15T08:56:51.854Z,101098.69
2018-07-15T08:59:20.568Z,101104.41
2018-07-15T09:01:49.265Z,101094.02
2018-07-15T09:04:17.951Z,101088.57
2018-07-15T09:06:46.607Z,101089.92
2018-07-15T09:09:15.273Z,101084.70
2018-07-15T09:11:43.862Z,101083.88
2018-07-15T09:14:12.493Z,101090.45
2018-07-15T09:16:41.249Z,101083.05
2018-07-15T09:19:09.817Z,101084.14
2018-07-15T09:21:38.497Z,101080.86
2018-07-15T09:24:07.448Z,101086.00
2018-07-15T09:26:36.141Z,101085.95
2018-07-15T09:29:04.869Z,101080.48
2018-07-15T09:31:33.596Z,101078.04
2018-07-15T09:34:02.280Z,101079.44
2018-07-15T09:36:30.893Z,101069.59
2018-07-15T09:38:59.538Z,101071.75
2018-07-15T09:41:28.231Z,101075.27
2018-07-15T09:43:56.918Z,101070.59
2018-07-15T09:46:25.553Z,101070.55
2018-07-15T09:48:54.086Z,101070.55
2018-07-15T09:51:22.853Z,101077.31
2018-07-15T09:53:51.502Z,101073.94
2018-07-15T09:56:20.207Z,101066.31
2018-07-15T09:58:48.792Z,101068.96
2018-07-15T10:01:17.526Z,101060.14
2018-07-15T10:03:46.230Z,101064.25
2018-07-15T10:06:15.007Z,101059.94
2018-07-15T10:08:43.675Z,101061.75
2018-07-15T10:11:12.302Z,101051.30
2018-07-15T10:13:41.825Z,101054.47
2018-07-15T10:16:10.553Z,101059.56
2018-07-15T10:18:39.176Z,101056.14
2018-07-15T10:21:07.823Z,101056.25
2018-07-15T10:23:36.413Z,101051.19
2018-07-15T10:26:05.144Z,101043.49
2018-07-15T10:28:33.755Z,101037.16
2018-07-15T10:31:02.557Z,101042.45
2018-07-15T10:33:31.211Z,101044.39
2018-07-15T10:35:59.948Z,101044.70
2018-07-15T10:38:28.665Z,101036.33
2018-07-15T10:40:57.446Z,101034.41
2018-07-15T10:43:26.151Z,101032.50
2018-07-15T10:45:57.823Z,101026.61
2018-07-15T10:48:26.547Z,101032.88
2018-07-15T10:50:55.258Z,101026.55
2018-07-15T10:53:24.070Z,101024.52
2018-07-15T10:55:52.753Z,101022.75
2018-07-15T10:58:21.400Z,101022.67
2018-07-15T11:00:50.053Z,101019.41
2018-07-15T11:03:18.797Z,101013.84
2018-07-15T11:05:47.443Z,101015.78
2018-07-15T11:08:16.239Z,101016.25
2018-07-15T11:10:44.942Z,101014.38
2018-07-15T11:13:13.663Z,101012.14
2018-07-15T11:15:42.296Z,101011.45
2018-07-15T11:18:11.074Z,101007.58
2018-07-15T11:20:39.826Z,101008.59
2018-07-15T11:23:08.514Z,101002.55
2018-07-15T11:25:37.078Z,100999.03
2018-07-15T11:28:05.928Z,100996.18
2018-07-15T11:30:34.661Z,100999.25
2018-07-15T11:33:03.409Z,100999.96
2018-07-15T11:35:32.107Z,100995.30
2018-07-15T11:38:00.800Z,100995.14
2018-07-15T11:40:29.440Z,100988.17
2018-07-15T11:42:58.113Z,100989.36
2018-07-15T11:45:26.767Z,100985.67
2018-07-15T11:47:55.527Z,100987.25
2018-07-15T11:50:24.105Z,100975.36
2018-07-15T11:52:52.851Z,100974.84
2018-07-15T11:55:21.595Z,100978.31
2018-07-15T11:57:50.329Z,100978.28
2018-07-15T12:00:18.985Z,100969.27
2018-07-15T12:02:47.714Z,100970.27
2018-07-15T12:05:16.352Z,100966.98
2018-07-15T12:07:45.087Z,100960.23
2018-07-15T12:10:13.732Z,100960.59
2018-07-15T12:12:42.433Z,100954.88
2018-07-15T12:15:10.994Z,100954.95
2018-07-15T12:17:39.612Z,100949.46
2018-07-15T12:20:08.176Z,100953.75
2018-07-15T12:22:36.941Z,100948.83
2018-07-15T12:25:05.688Z,100951.13
2018-07-15T12:27:34.454Z,100951.38
2018-07-15T12:30:03.033Z,100948.63
2018-07-15T12:32:31.729Z,100941.02
2018-07-15T12:35:00.531Z,100928.33
2018-07-15T12:37:29.147Z,100934.27
2018-07-15T12:39:57.747Z,100935.51
2018-07-15T12:42:26.373Z,100927.56
2018-07-15T12:44:54.954Z,100923.19
2018-07-15T12:47:23.617Z,100917.51
2018-07-15T12:49:52.289Z,100915.65
2018-07-15T12:52:21.018Z,100910.04
2018-07-15T12:54:49.742Z,100898.25
2018-07-15T12:57:18.404Z,100899.89
2018-07-15T12:59:47.063Z,100900.45
2018-07-15T13:02:15.740Z,100890.37
2018-07-15T13:04:44.519Z,100885.52
2018-07-15T13:07:13.260Z,100890.36
2018-07-15T13:09:41.955Z,100882.42
2018-07-15T13:12:10.690Z,100874.63
2018-07-15T13:14:39.418Z,100871.03
2018-07-15T13:17:08.077Z,100861.47
2018-07-15T13:19:37.193Z,100850.96
2018-07-15T13:22:06.020Z,100861.63
2018-07-15T13:24:34.797Z,100846.09
2018-07-15T13:27:03.494Z,100847.20
2018-07-15T13:29:32.209Z,100840.63
2018-07-15T13:32:01.309Z,100841.90
2018-07-15T13:34:30.059Z,100844.46
2018-07-15T13:36:59.128Z,100834.88
2018-07-15T13:39:28.615Z,100831.45
2018-07-15T13:41:57.287Z,100834.46
2018-07-15T13:44:25.915Z,100828.14
2018-07-15T13:46:54.720Z,100827.22
2018-07-15T13:49:23.376Z,100831.63
2018-07-15T13:51:52.093Z,100823.22
2018-07-15T13:54:20.851Z,100828.81
2018-07-15T13:56:49.528Z,100825.60
2018-07-15T13:59:18.199Z,100826.55
2018-07-15T14:01:46.854Z,100821.06
2018-07-15T14:04:15.558Z,100822.24
2018-07-15T14:06:44.108Z,100817.91
2018-07-15T14:09:12.817Z,100810.23
2018-07-15T14:11:41.451Z,100814.51
2018-07-15T14:14:10.131Z,100819.08
2018-07-15T14:16:38.776Z,100807.84
2018-07-15T14:19:08.151Z,100808.45
2018-07-15T14:21:36.712Z,100805.31
2018-07-15T14:24:05.483Z,100796.02
2018-07-15T14:26:34.152Z,100805.75
2018-07-15T14:29:02.851Z,100798.92
2018-07-15T14:31:31.552Z,100796.03
2018-07-15T14:34:00.248Z,100791.78
2018-07-15T14:36:28.886Z,100792.69
2018-07-15T14:38:57.629Z,100790.22
2018-07-15T14:41:26.348Z,100786.80
2018-07-15T14:43:55.103Z,100779.44
2018-07-15T14:46:23.742Z,100777.02
2018-07-15T14:48:52.446Z,100776.43
2018-07-15T14:51:21.150Z,100775.63
2018-07-15T14:53:49.968Z,100773.66
2018-07-15T14:56:18.674Z,100776.23
2018-07-15T14:58:47.421Z,100775.66
2018-07-15T15:01:16.055Z,100767.91
2018-07-15T15:03:44.780Z,100771.97
2018-07-15T15:06:13.346Z,100770.06
2018-07-15T15:08:42.153Z,100768.98
2018-07-15T15:11:10.945Z,100767.39
2018-07-15T15:13:39.838Z,100762.50
2018-07-15T15:16:08.490Z,100758.35
2018-07-15T15:18:37.297Z,100760.20
2018-07-15T15:21:06.242Z,100752.75
2018-07-15T15:23:34.895Z,100752.94
2018-07-15T15:26:03.712Z,100759.20
2018-07-15T15:28:32.417Z,100762.28
2018-07-15T15:31:01.155Z,100757.86
2018-07-15T15:33:29.896Z,100758.02
2018-07-15T15:35:58.562Z,100750.59
2018-07-15T15:38:28.249Z,100752.28
2018-07-15T15:40:56.835Z,100747.49
2018-07-15T15:43:25.576Z,100749.34
2018-07-15T15:45:54.384Z,100742.47
2018-07-15T15:48:22.973Z,100742.28
2018-07-15T15:50:51.553Z,100735.98
2018-07-15T15:53:20.338Z,100734.31
2018-07-15T15:55:49.128Z,100737.83
2018-07-15T15:58:17.755Z,100732.55
2018-07-15T16:00:46.403Z,100739.15
2018-07-15T16:03:15.233Z,100734.28
2018-07-15T16:05:44.068Z,100730.81
2018-07-15T16:08:12.754Z,100727.38
2018-07-15T16:10:41.454Z,100723.88
2018-07-15T16:13:10.171Z,100718.39
2018-07-15T16:15:38.997Z,100716.09
2018-07-15T16:18:07.622Z,100723.44
2018-07-15T16:20:36.344Z,100719.56
2018-07-15T16:23:05.035Z,100721.78
2018-07-15T16:25:33.685Z,100718.47
2018-07-15T16:28:02.357Z,100719.08
2018-07-15T16:30:31.079Z,100725.14
2018-07-15T16:32:59.743Z,100717.88
2018-07-15T16:35:30.490Z,100709.18
2018-07-15T16:37:59.247Z,100706.72
2018-07-15T16:40:27.953Z,100710.41
2018-07-15T16:42:56.575Z,100708.05
2018-07-15T16:45:25.228Z,100701.05
2018-07-15T16:47:53.833Z,100709.69
2018-07-15T16:50:22.478Z,100703.83
2018-07-15T16:52:51.277Z,100706.11
2018-07-15T16:55:19.970Z,100702.36
2018-07-15T16:57:48.563Z,100710.02
2018-07-15T17:00:17.243Z,100703.94
2018-07-15T17:02:45.779Z,100706.88
2018-07-15T17:05:14.354Z,100700.91
2018-07-15T17:07:43.016Z,100706.17
2018-07-15T17:10:11.670Z,100710.15
2018-07-15T17:12:40.205Z,100704.65
2018-07-15T17:15:09.010Z,100708.73
2018-07-15T17:17:37.552Z,100701.23
2018-07-15T17:20:06.339Z,100705.09
2018-07-15T17:22:34.914Z,100702.73
2018-07-15T17:25:03.486Z,100704.01
2018-07-15T17:27:32.245Z,100709.01
2018-07-15T17:30:01.010Z,100699.02
2018-07-15T17:32:29.690Z,100699.18
2018-07-15T17:34:58.906Z,100694.83
2018-07-15T17:37:27.486Z,100697.06
2018-07-15T17:39:56.210Z,100706.29
2018-07-15T17:42:24.867Z,100706.21
2018-07-15T17:44:53.542Z,100709.13
2018-07-15T17:47:22.260Z,100707.66
2018-07-15T17:49:50.963Z,100710.30
2018-07-15T17:52:19.638Z,100705.58
2018-07-15T17:54:48.296Z,100706.62
2018-07-15T17:57:16.879Z,100708.98
2018-07-15T17:59:45.525Z,100701.80
2018-07-15T18:02:14.142Z,100705.09
2018-07-15T18:04:43.761Z,100703.23
2018-07-15T18:07:12.479Z,100701.83
2018-07-15T18:09:41.179Z,100710.40
2018-07-15T18:12:09.967Z,100710.40
2018-07-15T18:14:38.586Z,100708.13
2018-07-15T18:17:07.246Z,100708.76
2018-07-15T18:19:35.908Z,100707.18
2018-07-15T18:22:04.607Z,100708.30
2018-07-15T18:24:33.464Z,100708.78
2018-07-15T18:27:02.205Z,100711.09
2018-07-15T18:29:31.176Z,100719.31
2018-07-15T18:31:59.965Z,100715.48
2018-07-15T18:34:28.780Z,100714.82
2018-07-15T18:36:57.384Z,100709.72
2018-07-15T18:39:27.072Z,100711.66
2018-07-15T18:41:55.714Z,100720.91
2018-07-15T18:44:24.316Z,100712.09
2018-07-15T18:46:53.199Z,100715.69
2018-07-15T18:49:21.838Z,100722.70
2018-07-15T18:51:50.639Z,100717.78
2018-07-15T18:54:19.330Z,100719.67
2018-07-15T18:56:48.025Z,100722.27
2018-07-15T18:59:16.593Z,100722.98
2018-07-15T19:01:45.197Z,100722.30
2018-07-15T19:04:13.831Z,100721.36
2018-07-15T19:06:42.535Z,100719.63
2018-07-15T19:09:11.081Z,100727.69
2018-07-15T19:11:39.795Z,100734.79
2018-07-15T19:14:08.454Z,100742.04
2018-07-15T19:16:36.991Z,100737.73
2018-07-15T19:19:05.831Z,100740.94
2018-07-15T19:21:34.506Z,100747.62
2018-07-15T19:24:03.249Z,100762.71
2018-07-15T19:26:32.016Z,100754.61
2018-07-15T19:29:00.768Z,100766.58
2018-07-15T19:31:29.361Z,100767.11
2018-07-15T19:33:58.036Z,100768.45
2018-07-15T19:36:27.023Z,100770.88
2018-07-15T19:38:55.723Z,100770.20
2018-07-15T19:41:24.315Z,100766.89
2018-07-15T19:43:53.046Z,100770.07
2018-07-15T19:46:21.769Z,100773.53
2018-07-15T19:48:50.295Z,100771.56
2018-07-15T19:51:18.902Z,100778.73
2018-07-15T19:53:47.437Z,100781.34
2018-07-15T19:56:16.159Z,100780.40
2018-07-15T19:58:44.854Z,100787.97
2018-07-15T20:01:13.502Z,100785.92
2018-07-15T20:03:42.123Z,100790.35
2018-07-15T20:06:10.835Z,100789.08
2018-07-15T20:08:39.393Z,100791.41
2018-07-15T20:11:08.097Z,100791.51
2018-07-15T20:13:36.735Z,100792.45
2018-07-15T20:16:05.506Z,100794.44
2018-07-15T20:18:34.186Z,100793.48
2018-07-15T20:21:02.878Z,100797.94
2018-07-15T20:23:31.401Z,100803.77
2018-07-15T20:26:00.072Z,100801.45
2018-07-15T20:28:28.788Z,100803.75
2018-07-15T20:30:57.477Z,100804.39
2018-07-15T20:33:26.214Z,100807.28
2018-07-15T20:35:54.920Z,100808.81
2018-07-15T20:38:23.557Z,100808.44
2018-07-15T20:40:52.437Z,100807.74
2018-07-15T20:43:21.054Z,100807.32
2018-07-15T20:45:49.894Z,100810.46
2018-07-15T20:48:19.575Z,100809.28
2018-07-15T20:50:49.090Z,100808.94
2018-07-15T20:53:17.755Z,100811.50
2018-07-15T20:55:46.280Z,100809.02
2018-07-15T20:58:14.963Z,100811.97
2018-07-15T21:00:43.644Z,100804.39
2018-07-15T21:03:12.329Z,100807.36
2018-07-15T21:05:40.970Z,100808.14
2018-07-15T21:08:09.598Z,100805.74
2018-07-15T21:10:38.192Z,100801.95
2018-07-15T21:13:06.926Z,100809.31
2018-07-15T21:15:35.523Z,100806.36
2018-07-15T21:18:04.253Z,100812.33
2018-07-15T21:20:32.750Z,100813.98
2018-07-15T21:23:01.516Z,100813.59
2018-07-15T21:25:30.533Z,100815.59
2018-07-15T21:27:59.594Z,100813.52
2018-07-15T21:30:28.075Z,100817.66
2018-07-15T21:32:56.773Z,100815.80
2018-07-15T21:35:25.392Z,100819.41
2018-07-15T21:37:54.257Z,100818.30
2018-07-15T21:40:22.823Z,100827.40
2018-07-15T21:42:51.474Z,100829.64
2018-07-15T21:45:20.100Z,100831.72
2018-07-15T21:47:48.661Z,100822.98
2018-07-15T21:50:17.386Z,100827.50
2018-07-15T21:52:45.980Z,100821.72
2018-07-15T21:55:14.504Z,100825.72
2018-07-15T21:57:43.064Z,100829.98
2018-07-15T22:00:11.575Z,100829.41
2018-07-15T22:02:40.220Z,100827.18
2018-07-15T22:05:08.993Z,100832.52
2018-07-15T22:07:48.791Z,100833.23
2018-07-15T22:10:30.327Z,100839.34
2018-07-15T22:12:59.085Z,100832.23
2018-07-15T22:15:28.768Z,100835.06
2018-07-15T22:17:57.486Z,100836.88
2018-07-15T22:20:26.138Z,100835.66
2018-07-15T22:22:54.659Z,100830.37
2018-07-15T22:25:23.326Z,100834.35
2018-07-15T22:27:51.935Z,100842.75
2018-07-15T22:30:20.646Z,100847.37
2018-07-15T22:32:50.136Z,100845.97
2018-07-15T22:35:18.771Z,100844.04
2018-07-15T22:37:47.518Z,100836.77
2018-07-15T22:40:16.026Z,100844.04
2018-07-15T22:42:44.567Z,100840.00
2018-07-15T22:45:13.250Z,100832.73
2018-07-15T22:47:42.001Z,100832.12
2018-07-15T22:50:10.726Z,100829.55
2018-07-15T22:52:39.474Z,100826.64
2018-07-15T22:55:08.047Z,100832.15
2018-07-15T22:57:36.881Z,100836.80
2018-07-15T23:00:06.106Z,100830.19
2018-07-15T23:02:34.720Z,100833.64
2018-07-15T23:05:40.566Z,100831.92
2018-07-15T23:08:09.524Z,100826.65
2018-07-15T23:10:38.169Z,100825.82
2018-07-15T23:13:07.923Z,100828.34
2018-07-15T23:15:37.074Z,100823.71
2018-07-15T23:18:09.083Z,100825.88
2018-07-15T23:20:38.556Z,100835.45
2018-07-15T23:23:08.364Z,100827.36
2018-07-15T23:25:37.631Z,100830.64
2018-07-15T23:28:08.332Z,100834.99
2018-07-15T23:30:37.941Z,100826.53
2018-07-15T23:33:07.094Z,100832.17
2018-07-15T23:35:35.687Z,100828.86
2018-07-15T23:38:04.387Z,100828.27
2018-07-15T23:40:33.051Z,100827.51
2018-07-15T23:43:02.352Z,100830.14
2018-07-15T23:45:32.144Z,100831.30
2018-07-15T23:48:02.658Z,100828.95
2018-07-15T23:50:31.192Z,100826.27
2018-07-15T23:52:59.899Z,100828.00
2018-07-15T23:55:28.511Z,100823.03
2018-07-15T23:57:57.185Z,100830.28
